Terminal Aerodrome Forecast
Issued by NWS

Home | Current Version | Previous Version | Text Only | Print | Product List | Glossary On
Versions: 1 2 3 4 5 6 7 8 9 10 11 12
000
FTUS45 KRIW 251100
TAFWRL
TAF
KWRL 251127Z 2512/2612 33012G18KT 1SM -SN OVC008
     FM260100 32008KT 4SM -SN SCT015 OVC025
     FM261000 30006KT P6SM -SN OVC035=

USA.gov is the U.S. government's official web portal to all federal, state and local government web resources and services.